Time;durP1;ratioP1;P1;durP2;ratioP2;P2;SDS_P1;SDS_P2;PMS_P1;PMS_P2;Temp;Humidity;BMP_temperature;BMP_pressure;BME280_temperature;BME280_humidity;BME280_pressure;Samples;Min_cycle;Max_cycle;Signal;HPM_P1;HPM_P2
2021/12/23 00:00:24;;;;;;;;;;;-0.60;1.00;;;;;;5075821;28;19991;-84
2021/12/23 00:02:49;;;;;;;;;;;-0.60;1.00;;;;;;5090785;28;19983;-86
2021/12/23 00:05:14;;;;;;;;;;;-0.60;1.00;;;;;;5076009;28;19913;-86
2021/12/23 00:07:40;;;;;;;;;;;-0.60;1.00;;;;;;5067904;28;19920;-85
2021/12/23 00:10:07;;;;;;;;;;;-0.60;1.00;;;;;;5078730;28;19951;-85
2021/12/23 00:12:34;;;;;;;;;;;-0.60;1.00;;;;;;5073127;28;20019;-85
2021/12/23 00:14:59;;;;;;;;;;;-0.60;1.00;;;;;;5079716;28;19923;-86
2021/12/23 00:17:53;;;;;;;;;;;-0.60;1.00;;;;;;5079019;28;19916;-86
2021/12/23 00:25:23;;;;;;;;;;;-0.70;99.90;;;;;;5075499;28;19935;-85
2021/12/23 00:27:48;;;;;;;;;;;-0.60;99.90;;;;;;5071410;28;19916;-85
2021/12/23 00:30:14;;;;;;;;;;;-0.60;1.00;;;;;;5075565;28;19913;-86
2021/12/23 00:32:39;;;;;;;;;;;-0.60;1.00;;;;;;5077547;28;19913;-86
2021/12/23 00:35:05;;;;;;;;;;;-0.60;1.00;;;;;;5076299;28;19912;-86
2021/12/23 00:37:37;;;;;;;;;;;-0.60;1.00;;;;;;5076952;28;19924;-86
2021/12/23 00:40:03;;;;;;;;;;;-0.60;1.00;;;;;;5077814;28;20277;-85
2021/12/23 00:42:31;;;;;;;;;;;-0.60;1.00;;;;;;5081681;28;19935;-85
2021/12/23 00:44:56;;;;;;;;;;;-0.60;99.90;;;;;;5075415;28;19952;-84
2021/12/23 00:47:22;;;;;;;;;;;-0.70;1.00;;;;;;5082383;28;19943;-84
2021/12/23 00:49:47;;;;;;;;;;;-0.70;1.00;;;;;;5072412;28;19913;-85
2021/12/23 00:52:16;;;;;;;;;;;-0.70;1.00;;;;;;5076632;28;19916;-85
2021/12/23 00:54:42;;;;;;;;;;;-0.80;1.00;;;;;;5072099;28;19920;-85
2021/12/23 00:57:07;;;;;;;;;;;-0.70;4.00;;;;;;5072627;28;19913;-85
2021/12/23 00:59:35;;;;;;;;;;;-0.80;1.00;;;;;;5076434;28;20015;-84
2021/12/23 01:02:03;;;;;;;;;;;-0.80;50.50;;;;;;5077265;28;19913;-84
2021/12/23 01:04:29;;;;;;;;;;;-0.80;99.90;;;;;;5077870;28;19946;-85
2021/12/23 01:06:54;;;;;;;;;;;-0.80;99.90;;;;;;5082424;28;19912;-85
2021/12/23 01:09:21;;;;;;;;;;;-0.80;99.90;;;;;;5078395;28;19916;-85
2021/12/23 01:11:48;;;;;;;;;;;-0.80;99.90;;;;;;5082008;28;19948;-86
2021/12/23 01:15:13;;;;;;;;;;;-0.80;99.90;;;;;;5077704;28;19916;-85
2021/12/23 01:17:22;;;;;;;;;;;-0.80;99.90;;;;;;5064963;28;19916;-85
2021/12/23 01:19:50;;;;;;;;;;;-0.80;99.90;;;;;;5071139;28;19917;-85
2021/12/23 01:22:16;;;;;;;;;;;-0.80;99.90;;;;;;5061063;28;19912;-85
2021/12/23 01:24:42;;;;;;;;;;;-0.80;99.90;;;;;;5070700;28;19955;-84
2021/12/23 01:27:07;;;;;;;;;;;-0.80;99.90;;;;;;5076001;28;19917;-85
2021/12/23 01:29:33;;;;;;;;;;;-0.70;99.90;;;;;;5078857;28;19916;-85
2021/12/23 01:32:01;;;;;;;;;;;-0.70;97.50;;;;;;5072812;28;19980;-85
2021/12/23 01:34:26;;;;;;;;;;;-0.70;64.00;;;;;;5082463;28;19912;-86
2021/12/23 01:36:52;;;;;;;;;;;-0.80;58.80;;;;;;5077765;28;19912;-85
2021/12/23 01:39:17;;;;;;;;;;;-0.80;99.90;;;;;;5064882;28;19916;-86
2021/12/23 01:41:42;;;;;;;;;;;-0.80;99.90;;;;;;5082670;28;19927;-85
2021/12/23 01:44:08;;;;;;;;;;;-0.80;99.90;;;;;;5101985;28;19909;-85
2021/12/23 01:46:33;;;;;;;;;;;-0.80;99.90;;;;;;5080895;28;19912;-85
2021/12/23 01:48:59;;;;;;;;;;;-0.80;99.90;;;;;;5074151;28;19912;-85
2021/12/23 01:51:24;;;;;;;;;;;-0.80;99.90;;;;;;5075394;28;19917;-85
2021/12/23 01:53:50;;;;;;;;;;;-0.80;99.90;;;;;;5075471;28;19958;-85
2021/12/23 01:56:17;;;;;;;;;;;-0.80;99.90;;;;;;5084340;28;19923;-86
2021/12/23 01:58:43;;;;;;;;;;;-0.80;99.90;;;;;;5079416;28;19925;-84
2021/12/23 02:01:09;;;;;;;;;;;-0.80;1.00;;;;;;5076427;28;19920;-86
2021/12/23 02:03:35;;;;;;;;;;;-0.70;1.00;;;;;;5073415;28;19919;-85
2021/12/23 02:06:00;;;;;;;;;;;-0.70;1.00;;;;;;5074731;28;19913;-86
2021/12/23 02:08:25;;;;;;;;;;;-0.70;1.00;;;;;;5072620;28;19913;-85
2021/12/23 02:10:52;;;;;;;;;;;-0.70;1.00;;;;;;5071465;28;19958;-84
2021/12/23 02:13:17;;;;;;;;;;;-0.60;1.00;;;;;;5077207;28;20018;-86
2021/12/23 02:15:43;;;;;;;;;;;-0.60;1.00;;;;;;5073211;28;19913;-85
2021/12/23 02:18:08;;;;;;;;;;;-0.50;1.00;;;;;;5072346;28;19961;-85
2021/12/23 02:20:34;;;;;;;;;;;-0.40;99.90;;;;;;5078881;28;19913;-85
2021/12/23 02:23:00;;;;;;;;;;;-0.40;99.90;;;;;;5070563;28;19912;-85
2021/12/23 02:25:26;;;;;;;;;;;-0.30;99.90;;;;;;5093794;28;20372;-86
2021/12/23 02:27:52;;;;;;;;;;;-0.20;98.10;;;;;;5068616;28;19966;-85
2021/12/23 02:30:19;;;;;;;;;;;-0.20;1.00;;;;;;5070692;28;19932;-86
2021/12/23 02:32:45;;;;;;;;;;;-0.10;1.00;;;;;;5053526;28;19920;-84
2021/12/23 02:35:13;;;;;;;;;;;-0.10;99.90;;;;;;5060737;28;19913;-85
2021/12/23 02:37:39;;;;;;;;;;;-0.10;99.90;;;;;;5071173;28;19977;-84
2021/12/23 02:40:05;;;;;;;;;;;0.00;99.90;;;;;;5072895;28;19919;-85
2021/12/23 02:42:31;;;;;;;;;;;0.00;99.90;;;;;;5078294;28;19912;-84
2021/12/23 02:44:58;;;;;;;;;;;0.00;99.90;;;;;;5065259;28;19923;-85
2021/12/23 02:47:23;;;;;;;;;;;0.00;99.90;;;;;;5077783;28;19920;-85
2021/12/23 02:49:49;;;;;;;;;;;0.00;99.90;;;;;;5069415;28;19916;-84
2021/12/23 02:52:15;;;;;;;;;;;-0.10;99.90;;;;;;5066571;28;20007;-85
2021/12/23 02:54:41;;;;;;;;;;;-0.10;99.90;;;;;;5079005;28;19931;-85
2021/12/23 02:57:06;;;;;;;;;;;-0.10;99.90;;;;;;5060807;28;19913;-84
2021/12/23 02:59:33;;;;;;;;;;;-0.10;99.90;;;;;;5091359;28;19920;-85
2021/12/23 03:01:59;;;;;;;;;;;-0.10;99.90;;;;;;5074432;28;19997;-85
2021/12/23 03:04:25;;;;;;;;;;;-0.10;99.90;;;;;;5079495;28;19922;-86
2021/12/23 03:06:54;;;;;;;;;;;-0.20;99.90;;;;;;5081305;28;19979;-86
2021/12/23 03:09:19;;;;;;;;;;;-0.10;99.90;;;;;;5071524;28;19947;-86
2021/12/23 03:11:45;;;;;;;;;;;-0.10;99.90;;;;;;5081533;28;19916;-86
2021/12/23 03:14:11;;;;;;;;;;;-0.10;1.00;;;;;;5078965;28;19912;-85
2021/12/23 03:16:38;;;;;;;;;;;-0.10;1.00;;;;;;5072665;28;19943;-86
2021/12/23 03:19:04;;;;;;;;;;;0.00;1.00;;;;;;5071409;28;19923;-86
2021/12/23 03:21:30;;;;;;;;;;;0.00;99.90;;;;;;5080906;28;19919;-86
2021/12/23 03:23:55;;;;;;;;;;;0.10;99.90;;;;;;5098750;28;20368;-87
2021/12/23 03:26:20;;;;;;;;;;;0.10;99.90;;;;;;5061753;28;19923;-85
2021/12/23 03:28:46;;;;;;;;;;;0.10;99.90;;;;;;5080536;28;20269;-84
2021/12/23 03:31:12;;;;;;;;;;;0.20;99.90;;;;;;5077853;28;19912;-85
2021/12/23 03:33:37;;;;;;;;;;;0.20;99.90;;;;;;5053796;28;19919;-86
2021/12/23 03:36:03;;;;;;;;;;;0.20;99.90;;;;;;5073075;28;19923;-85
2021/12/23 03:38:29;;;;;;;;;;;0.20;99.90;;;;;;5095695;28;19916;-86
2021/12/23 03:40:54;;;;;;;;;;;0.20;99.90;;;;;;5077280;28;19912;-85
2021/12/23 03:43:20;;;;;;;;;;;0.20;99.90;;;;;;5070406;28;19913;-85
2021/12/23 03:45:47;;;;;;;;;;;0.20;99.90;;;;;;5069686;28;19935;-85
2021/12/23 03:48:13;;;;;;;;;;;0.20;99.90;;;;;;5077294;28;19927;-84
2021/12/23 03:50:39;;;;;;;;;;;0.10;99.90;;;;;;5078740;28;19908;-85
2021/12/23 03:53:04;;;;;;;;;;;0.00;99.90;;;;;;5074284;28;19971;-86
2021/12/23 03:55:30;;;;;;;;;;;0.00;1.00;;;;;;5072837;28;19923;-85
2021/12/23 03:57:55;;;;;;;;;;;0.00;1.00;;;;;;5067048;28;19916;-85
2021/12/23 04:00:22;;;;;;;;;;;0.00;98.10;;;;;;5067382;28;19912;-84
2021/12/23 04:02:49;;;;;;;;;;;0.00;99.90;;;;;;5069451;28;19908;-85
2021/12/23 04:05:15;;;;;;;;;;;0.10;99.90;;;;;;5074050;28;19913;-83
2021/12/23 04:07:41;;;;;;;;;;;0.10;1.00;;;;;;5069695;28;19921;-84
2021/12/23 04:10:08;;;;;;;;;;;0.20;1.00;;;;;;5058777;28;20327;-85
2021/12/23 04:12:33;;;;;;;;;;;0.10;1.00;;;;;;5068378;28;19920;-84
2021/12/23 04:14:59;;;;;;;;;;;0.10;1.00;;;;;;5074167;28;20373;-85
2021/12/23 04:17:24;;;;;;;;;;;0.00;87.10;;;;;;5065327;28;19921;-84
2021/12/23 04:19:50;;;;;;;;;;;0.00;99.90;;;;;;5074761;28;20418;-85
2021/12/23 04:22:16;;;;;;;;;;;-0.10;99.90;;;;;;5068250;28;20360;-85
2021/12/23 04:24:41;;;;;;;;;;;-0.10;1.00;;;;;;5077159;28;19916;-85
2021/12/23 04:27:07;;;;;;;;;;;-0.10;1.00;;;;;;5072605;28;19913;-85
2021/12/23 04:29:32;;;;;;;;;;;-0.20;99.90;;;;;;5072236;28;19951;-85
2021/12/23 04:31:59;;;;;;;;;;;-0.10;1.00;;;;;;5063283;28;19959;-85
2021/12/23 04:34:25;;;;;;;;;;;-0.10;1.00;;;;;;5068205;28;19980;-85
2021/12/23 04:36:51;;;;;;;;;;;0.00;99.90;;;;;;5072717;28;19987;-86
2021/12/23 04:39:16;;;;;;;;;;;0.00;99.90;;;;;;5072347;28;19999;-85
2021/12/23 04:41:41;;;;;;;;;;;0.00;1.00;;;;;;5089014;28;19913;-85
2021/12/23 04:44:07;;;;;;;;;;;0.00;1.00;;;;;;5075407;28;19919;-85
2021/12/23 04:46:32;;;;;;;;;;;-0.10;1.00;;;;;;5075765;28;20391;-85
2021/12/23 04:48:58;;;;;;;;;;;-0.10;99.90;;;;;;5065563;28;19920;-86
2021/12/23 04:51:23;;;;;;;;;;;-0.20;99.90;;;;;;5070976;28;19974;-85
2021/12/23 04:53:49;;;;;;;;;;;-0.20;1.00;;;;;;5071902;28;19924;-85
2021/12/23 04:56:15;;;;;;;;;;;-0.20;1.00;;;;;;5071828;28;19913;-84
2021/12/23 04:58:41;;;;;;;;;;;-0.20;1.00;;;;;;5086851;28;19917;-86
2021/12/23 05:01:09;;;;;;;;;;;-0.20;1.00;;;;;;5075166;28;20376;-85
2021/12/23 05:03:34;;;;;;;;;;;-0.20;1.00;;;;;;5097682;28;20368;-86
2021/12/23 05:06:00;;;;;;;;;;;-0.20;99.90;;;;;;5077000;28;19923;-85
2021/12/23 05:08:25;;;;;;;;;;;-0.20;99.90;;;;;;5078923;28;19924;-85
2021/12/23 05:10:51;;;;;;;;;;;-0.20;99.90;;;;;;5070955;28;20360;-85
2021/12/23 05:13:16;;;;;;;;;;;-0.20;99.90;;;;;;5070855;28;19913;-85
2021/12/23 05:15:42;;;;;;;;;;;-0.20;99.90;;;;;;5071220;28;19918;-85
2021/12/23 05:18:08;;;;;;;;;;;-0.30;99.90;;;;;;5073164;28;20010;-85
2021/12/23 05:20:34;;;;;;;;;;;-0.30;1.00;;;;;;5075438;28;19913;-86
2021/12/23 05:22:59;;;;;;;;;;;-0.40;99.90;;;;;;5056807;28;19923;-86
2021/12/23 05:25:25;;;;;;;;;;;-0.40;1.00;;;;;;5091758;28;19909;-85
2021/12/23 05:27:55;;;;;;;;;;;-0.30;1.00;;;;;;5077200;28;20392;-84
2021/12/23 05:30:21;;;;;;;;;;;-0.40;1.00;;;;;;5059252;28;19916;-84
2021/12/23 05:32:47;;;;;;;;;;;-0.40;80.20;;;;;;5079104;28;19938;-84
2021/12/23 05:35:13;;;;;;;;;;;-0.40;1.00;;;;;;5081758;28;19920;-84
2021/12/23 05:37:39;;;;;;;;;;;-0.50;82.40;;;;;;5094026;28;19912;-84
2021/12/23 05:40:05;;;;;;;;;;;-0.40;99.90;;;;;;5075399;28;19935;-85
2021/12/23 05:42:31;;;;;;;;;;;-0.40;84.60;;;;;;5080665;28;19959;-84
2021/12/23 05:44:56;;;;;;;;;;;-0.40;30.00;;;;;;5079999;28;20384;-84
2021/12/23 05:47:22;;;;;;;;;;;-0.40;12.20;;;;;;5080453;28;19960;-84
2021/12/23 05:49:47;;;;;;;;;;;-0.40;99.90;;;;;;5073385;28;19912;-84
2021/12/23 05:52:12;;;;;;;;;;;-0.40;1.00;;;;;;5079149;28;19916;-85
2021/12/23 05:54:38;;;;;;;;;;;-0.30;1.00;;;;;;5079992;28;19909;-85
2021/12/23 05:57:03;;;;;;;;;;;-0.30;1.00;;;;;;5083743;28;19909;-85
2021/12/23 05:59:30;;;;;;;;;;;-0.30;1.00;;;;;;5087823;28;20422;-85
2021/12/23 06:01:55;;;;;;;;;;;-0.20;99.90;;;;;;5088902;28;20414;-86
2021/12/23 06:04:21;;;;;;;;;;;-0.20;99.90;;;;;;5080782;28;19909;-86
2021/12/23 06:06:46;;;;;;;;;;;-0.10;99.90;;;;;;5081415;28;19912;-86
2021/12/23 06:09:12;;;;;;;;;;;-0.10;3.10;;;;;;5063352;28;19921;-84
2021/12/23 06:11:37;;;;;;;;;;;-0.10;1.00;;;;;;5098283;28;19908;-85
2021/12/23 06:14:03;;;;;;;;;;;-0.10;1.00;;;;;;5081649;28;19912;-86
2021/12/23 06:16:28;;;;;;;;;;;-0.10;1.00;;;;;;5083627;28;19927;-85
2021/12/23 06:18:54;;;;;;;;;;;-0.10;1.00;;;;;;5083386;28;19924;-86
2021/12/23 06:21:20;;;;;;;;;;;0.00;1.00;;;;;;5064858;28;19968;-86
2021/12/23 06:23:46;;;;;;;;;;;0.00;1.00;;;;;;5061471;28;19939;-85
2021/12/23 06:26:12;;;;;;;;;;;0.00;1.00;;;;;;5081518;28;19999;-85
2021/12/23 06:28:37;;;;;;;;;;;0.10;1.00;;;;;;5082739;28;19909;-85
2021/12/23 06:31:03;;;;;;;;;;;0.10;1.00;;;;;;5097602;28;19919;-87
2021/12/23 06:33:28;;;;;;;;;;;0.10;1.00;;;;;;5083824;28;20187;-85
2021/12/23 06:35:54;;;;;;;;;;;0.00;1.00;;;;;;5082129;28;19976;-85
2021/12/23 06:38:19;;;;;;;;;;;0.00;1.00;;;;;;5083033;28;19939;-85
2021/12/23 06:40:45;;;;;;;;;;;0.10;1.00;;;;;;5081552;28;19912;-85
2021/12/23 06:43:10;;;;;;;;;;;0.10;1.00;;;;;;5056451;28;19913;-87
2021/12/23 06:45:36;;;;;;;;;;;0.10;1.00;;;;;;5075597;28;20332;-85
2021/12/23 06:48:01;;;;;;;;;;;0.10;1.00;;;;;;5053825;28;19917;-86
2021/12/23 06:50:27;;;;;;;;;;;0.20;1.00;;;;;;5072738;28;20295;-85
2021/12/23 06:52:53;;;;;;;;;;;0.20;99.90;;;;;;5071793;28;19962;-85
2021/12/23 06:55:18;;;;;;;;;;;0.20;99.90;;;;;;5081451;28;19946;-84
2021/12/23 06:57:44;;;;;;;;;;;0.20;99.90;;;;;;5069660;28;19924;-85
2021/12/23 07:00:14;;;;;;;;;;;0.20;1.00;;;;;;5070785;28;19924;-86
2021/12/23 07:02:41;;;;;;;;;;;0.20;1.00;;;;;;5069579;28;20410;-84
2021/12/23 07:05:07;;;;;;;;;;;0.20;1.00;;;;;;5073305;28;20338;-83
2021/12/23 07:07:42;;;;;;;;;;;0.20;1.00;;;;;;5070024;28;19916;-81
2021/12/23 07:10:08;;;;;;;;;;;0.30;1.00;;;;;;5067934;28;20391;-87
2021/12/23 07:12:34;;;;;;;;;;;0.40;1.00;;;;;;5052519;28;19913;-86
2021/12/23 07:14:59;;;;;;;;;;;0.60;43.70;;;;;;5071701;28;19919;-86
2021/12/23 07:17:25;;;;;;;;;;;0.70;1.00;;;;;;5074125;28;19916;-86
2021/12/23 07:19:50;;;;;;;;;;;0.70;99.90;;;;;;5075240;28;19912;-86
2021/12/23 07:22:16;;;;;;;;;;;0.80;1.00;;;;;;5056532;28;20446;-85
2021/12/23 07:24:41;;;;;;;;;;;0.80;1.00;;;;;;5057094;28;20115;-86
2021/12/23 07:27:08;;;;;;;;;;;0.90;99.90;;;;;;5078729;28;19912;-86
2021/12/23 07:29:34;;;;;;;;;;;0.90;99.90;;;;;;5075950;28;19913;-85
2021/12/23 07:32:02;;;;;;;;;;;0.90;99.90;;;;;;5072906;28;19913;-86
2021/12/23 07:34:28;;;;;;;;;;;0.90;99.90;;;;;;5048021;28;19952;-87
2021/12/23 07:36:53;;;;;;;;;;;1.00;99.90;;;;;;5087166;28;19920;-86
2021/12/23 07:39:19;;;;;;;;;;;1.00;96.30;;;;;;5086149;28;19953;-85
2021/12/23 07:41:44;;;;;;;;;;;1.10;1.00;;;;;;5087880;28;19908;-86
2021/12/23 07:44:19;;;;;;;;;;;1.00;1.00;;;;;;5077576;28;20369;-86
2021/12/23 07:46:45;;;;;;;;;;;1.00;1.00;;;;;;5061085;28;19922;-86
2021/12/23 07:49:10;;;;;;;;;;;1.00;1.00;;;;;;5066469;28;19972;-87
2021/12/23 07:51:36;;;;;;;;;;;1.10;1.00;;;;;;5061115;28;20380;-86
2021/12/23 07:54:01;;;;;;;;;;;1.10;1.00;;;;;;5081505;28;20321;-85
2021/12/23 07:56:27;;;;;;;;;;;1.10;1.00;;;;;;5096312;28;19915;-86
2021/12/23 07:58:52;;;;;;;;;;;1.20;99.90;;;;;;5079925;28;20450;-87
2021/12/23 08:01:18;;;;;;;;;;;1.20;99.90;;;;;;5077723;28;19913;-85
2021/12/23 08:03:44;;;;;;;;;;;1.30;99.90;;;;;;5087609;28;20391;-85
2021/12/23 08:06:09;;;;;;;;;;;1.30;99.90;;;;;;5080451;28;19908;-87
2021/12/23 08:08:35;;;;;;;;;;;1.30;99.90;;;;;;5100517;28;19939;-86
2021/12/23 08:11:01;;;;;;;;;;;1.40;99.90;;;;;;5069615;28;19912;-87
2021/12/23 08:13:27;;;;;;;;;;;1.40;99.90;;;;;;5070085;28;20003;-86
2021/12/23 08:15:52;;;;;;;;;;;1.40;99.90;;;;;;5089412;28;19956;-86
2021/12/23 08:18:18;;;;;;;;;;;1.50;99.90;;;;;;5072165;28;19916;-87
2021/12/23 08:20:43;;;;;;;;;;;1.50;84.30;;;;;;5069982;28;19913;-86
2021/12/23 08:23:09;;;;;;;;;;;1.50;1.00;;;;;;5078865;28;19951;-86
2021/12/23 08:25:34;;;;;;;;;;;1.50;1.00;;;;;;5080730;28;19913;-87
2021/12/23 08:28:00;;;;;;;;;;;1.50;1.00;;;;;;5071784;28;19959;-86
2021/12/23 08:30:25;;;;;;;;;;;1.60;1.00;;;;;;5051017;28;19924;-88
2021/12/23 08:32:51;;;;;;;;;;;1.60;99.90;;;;;;5062362;28;19920;-85
2021/12/23 08:35:16;;;;;;;;;;;1.70;99.90;;;;;;5072552;28;19931;-85
2021/12/23 08:37:45;;;;;;;;;;;1.70;99.90;;;;;;5071539;28;19928;-85
2021/12/23 08:40:11;;;;;;;;;;;1.70;99.90;;;;;;5064395;28;19920;-86
2021/12/23 08:42:36;;;;;;;;;;;1.70;99.90;;;;;;5070317;28;19995;-86
2021/12/23 08:45:04;;;;;;;;;;;1.80;99.90;;;;;;5068142;28;19917;-86
2021/12/23 08:47:30;;;;;;;;;;;1.80;99.90;;;;;;5083017;28;19959;-86
2021/12/23 08:49:56;;;;;;;;;;;1.90;99.90;;;;;;5070520;28;19979;-87
2021/12/23 08:52:21;;;;;;;;;;;2.00;99.90;;;;;;5072913;28;20351;-87
2021/12/23 08:54:46;;;;;;;;;;;2.10;99.20;;;;;;5074244;28;19948;-86
2021/12/23 08:57:12;;;;;;;;;;;2.10;87.60;;;;;;5055126;28;19920;-86
2021/12/23 08:59:38;;;;;;;;;;;2.20;30.90;;;;;;5072627;28;19928;-86
2021/12/23 09:02:03;;;;;;;;;;;2.30;1.00;;;;;;5073258;28;19956;-86
2021/12/23 09:04:31;;;;;;;;;;;2.40;1.00;;;;;;5088173;28;19948;-87
2021/12/23 09:06:56;;;;;;;;;;;2.50;1.00;;;;;;5076151;28;19939;-86
2021/12/23 09:09:24;;;;;;;;;;;2.60;1.00;;;;;;5080257;28;19917;-87
2021/12/23 09:11:50;;;;;;;;;;;2.60;99.90;;;;;;5080427;28;19912;-87
2021/12/23 09:14:15;;;;;;;;;;;2.80;99.90;;;;;;5069645;28;19920;-87
2021/12/23 09:16:47;;;;;;;;;;;3.00;99.90;;;;;;5077224;28;20442;-87
2021/12/23 09:19:14;;;;;;;;;;;3.10;99.90;;;;;;5067246;28;19921;-87
2021/12/23 09:21:39;;;;;;;;;;;3.30;99.90;;;;;;5064735;28;19942;-87
2021/12/23 09:24:05;;;;;;;;;;;3.50;95.00;;;;;;5073769;28;19916;-86
2021/12/23 09:26:35;;;;;;;;;;;3.60;37.70;;;;;;5058694;28;19958;-87
2021/12/23 09:29:11;;;;;;;;;;;3.60;1.00;;;;;;5069946;28;19912;-87
2021/12/23 09:34:20;;;;;;;;;;;3.80;1.00;;;;;;5077647;28;20350;-87
2021/12/23 09:36:46;;;;;;;;;;;3.90;1.00;;;;;;5075281;28;19912;-87
2021/12/23 09:39:11;;;;;;;;;;;4.00;1.00;;;;;;5080843;28;20031;-87
2021/12/23 09:41:38;;;;;;;;;;;4.00;1.00;;;;;;5073443;28;19913;-88
2021/12/23 09:44:05;;;;;;;;;;;4.00;1.00;;;;;;5074441;28;19919;-86
2021/12/23 09:46:34;;;;;;;;;;;4.10;1.00;;;;;;5075318;28;20388;-87
2021/12/23 09:49:01;;;;;;;;;;;4.30;1.00;;;;;;5077008;28;19936;-87
2021/12/23 09:51:39;;;;;;;;;;;4.40;1.00;;;;;;5093385;23;19929;-81
2021/12/23 09:54:06;;;;;;;;;;;4.50;1.00;;;;;;5036617;28;19913;-78
2021/12/23 09:56:32;;;;;;;;;;;4.40;1.00;;;;;;5060622;28;20003;-79
2021/12/23 09:58:59;;;;;;;;;;;4.30;1.00;;;;;;5046969;28;19944;-80
2021/12/23 10:01:29;;;;;;;;;;;4.30;1.00;;;;;;5053639;28;19974;-79
2021/12/23 10:04:03;;;;;;;;;;;4.40;1.00;;;;;;5043603;28;19913;-79
2021/12/23 10:06:28;;;;;;;;;;;4.60;1.00;;;;;;5060104;28;20347;-79
2021/12/23 10:08:54;;;;;;;;;;;4.80;1.00;;;;;;5045889;28;19920;-80
2021/12/23 10:30:55;;;;;;;;;;;5.00;1.00;;;;;;5043276;28;20372;-78
2021/12/23 10:38:51;;;;;;;;;;;4.70;1.00;;;;;;5044313;28;20376;-78
2021/12/23 10:41:19;;;;;;;;;;;4.70;1.00;;;;;;5049970;28;19917;-78
2021/12/23 10:43:47;;;;;;;;;;;4.70;1.00;;;;;;5049432;28;20008;-79
2021/12/23 10:46:15;;;;;;;;;;;4.80;1.00;;;;;;5052144;28;19921;-78
2021/12/23 10:48:46;;;;;;;;;;;5.00;1.00;;;;;;5032197;28;19913;-78
2021/12/23 10:51:17;;;;;;;;;;;5.20;1.00;;;;;;5030034;28;19916;-78
2021/12/23 10:59:14;;;;;;;;;;;5.30;1.00;;;;;;5052224;28;19978;-80
2021/12/23 11:02:02;;;;;;;;;;;5.30;1.00;;;;;;5046447;28;19913;-81
2021/12/23 11:04:35;;;;;;;;;;;5.40;1.00;;;;;;5043610;28;19917;-78
2021/12/23 11:07:17;;;;;;;;;;;5.40;1.00;;;;;;5052430;28;19916;-77
2021/12/23 11:09:55;;;;;;;;;;;5.50;1.00;;;;;;5031733;28;20373;-78
2021/12/23 11:30:26;;;;;;;;;;;5.50;1.00;;;;;;5041161;28;19920;-79
2021/12/23 11:35:32;;;;;;;;;;;5.50;1.00;;;;;;5044170;28;19912;-80
2021/12/23 11:37:47;;;;;;;;;;;5.70;1.00;;;;;;5046466;28;19948;-79
2021/12/23 11:40:36;;;;;;;;;;;5.70;1.00;;;;;;5033436;28;19925;-78
2021/12/23 11:45:26;;;;;;;;;;;5.70;1.00;;;;;;5053455;28;19920;-79
2021/12/23 11:47:52;;;;;;;;;;;5.60;1.00;;;;;;5021053;28;19909;-79
2021/12/23 11:50:23;;;;;;;;;;;5.50;1.00;;;;;;5043844;28;20396;-80
2021/12/23 11:52:48;;;;;;;;;;;5.40;1.00;;;;;;5036456;28;19920;-79
2021/12/23 11:55:14;;;;;;;;;;;5.40;1.00;;;;;;5033683;28;21166;-79
2021/12/23 11:57:41;;;;;;;;;;;5.40;1.00;;;;;;5023273;28;20040;-79
2021/12/23 12:00:17;;;;;;;;;;;5.50;1.00;;;;;;5018484;28;19916;-79
2021/12/23 12:02:43;;;;;;;;;;;5.50;1.00;;;;;;5043955;28;19935;-80
2021/12/23 12:05:16;;;;;;;;;;;5.50;1.00;;;;;;5052783;28;20004;-79
2021/12/23 12:07:41;;;;;;;;;;;5.50;1.00;;;;;;5043534;28;19913;-79
2021/12/23 12:10:12;;;;;;;;;;;5.60;1.00;;;;;;5034964;28;19909;-79
2021/12/23 12:12:59;;;;;;;;;;;5.60;1.00;;;;;;5038700;28;19916;-79
2021/12/23 12:15:35;;;;;;;;;;;5.60;1.00;;;;;;5041988;28;19912;-79
2021/12/23 12:18:01;;;;;;;;;;;5.70;1.00;;;;;;5033645;28;19948;-79
2021/12/23 12:20:35;;;;;;;;;;;5.80;1.00;;;;;;5047310;28;19916;-79
2021/12/23 12:23:08;;;;;;;;;;;5.80;1.00;;;;;;5041410;28;19913;-79
2021/12/23 12:25:44;;;;;;;;;;;5.90;1.00;;;;;;5024288;28;19909;-80
2021/12/23 12:28:17;;;;;;;;;;;6.00;1.00;;;;;;5049233;28;20296;-79
2021/12/23 12:30:48;;;;;;;;;;;6.10;1.00;;;;;;5042986;28;19936;-79
2021/12/23 12:33:23;;;;;;;;;;;6.20;1.00;;;;;;5047114;28;19974;-78
2021/12/23 12:36:01;;;;;;;;;;;6.20;1.00;;;;;;5041356;28;19909;-79
2021/12/23 12:38:30;;;;;;;;;;;6.30;1.00;;;;;;5040006;28;19917;-79
2021/12/23 12:40:58;;;;;;;;;;;6.40;1.00;;;;;;5045996;28;20611;-79
2021/12/23 12:46:13;;;;;;;;;;;6.60;1.00;;;;;;5043425;28;19913;-79
2021/12/23 12:49:08;;;;;;;;;;;6.70;1.00;;;;;;5046882;28;20316;-78
2021/12/23 12:51:35;;;;;;;;;;;6.70;1.00;;;;;;5028809;28;19924;-78
2021/12/23 12:54:04;;;;;;;;;;;6.70;1.00;;;;;;5041568;28;19913;-78
2021/12/23 12:56:42;;;;;;;;;;;6.70;1.00;;;;;;5026380;28;19912;-78
2021/12/23 12:59:08;;;;;;;;;;;6.70;1.00;;;;;;5052745;28;20301;-78
2021/12/23 13:01:38;;;;;;;;;;;6.70;1.00;;;;;;5048765;28;19967;-79
2021/12/23 13:04:06;;;;;;;;;;;6.70;1.00;;;;;;5033163;28;19917;-79
2021/12/23 13:06:36;;;;;;;;;;;6.70;1.00;;;;;;5050026;28;19920;-79
2021/12/23 13:09:03;;;;;;;;;;;6.60;1.00;;;;;;5033382;28;19967;-79
2021/12/23 13:11:28;;;;;;;;;;;6.60;1.00;;;;;;5040050;28;19949;-78
2021/12/23 13:14:00;;;;;;;;;;;6.60;1.00;;;;;;5042896;28;19947;-79
2021/12/23 13:16:27;;;;;;;;;;;6.50;1.00;;;;;;5038739;28;19996;-78
2021/12/23 13:19:12;;;;;;;;;;;6.50;1.00;;;;;;5027240;28;19971;-78
2021/12/23 13:21:42;;;;;;;;;;;6.50;1.00;;;;;;5045004;28;19955;-78
2021/12/23 13:24:12;;;;;;;;;;;6.50;1.00;;;;;;5028601;28;19912;-78
2021/12/23 13:26:38;;;;;;;;;;;6.40;1.00;;;;;;5040369;28;20272;-78
2021/12/23 13:29:06;;;;;;;;;;;6.40;1.00;;;;;;5040374;28;19905;-79
2021/12/23 13:31:34;;;;;;;;;;;6.40;1.00;;;;;;5043642;28;20380;-78
2021/12/23 13:34:06;;;;;;;;;;;6.40;1.00;;;;;;5035874;28;20345;-79
2021/12/23 13:36:31;;;;;;;;;;;6.30;1.00;;;;;;5044162;28;19909;-78
2021/12/23 13:39:04;;;;;;;;;;;6.20;1.00;;;;;;5040538;28;20253;-79
2021/12/23 13:41:31;;;;;;;;;;;6.20;1.00;;;;;;5044706;28;19909;-79
2021/12/23 13:44:15;;;;;;;;;;;6.10;1.00;;;;;;5042717;28;19912;-79
2021/12/23 13:46:42;;;;;;;;;;;6.00;1.00;;;;;;5044595;28;19999;-79
2021/12/23 13:49:08;;;;;;;;;;;6.00;1.00;;;;;;5033959;28;19914;-78
2021/12/23 13:51:35;;;;;;;;;;;6.00;1.00;;;;;;5045650;28;19917;-79
2021/12/23 13:54:14;;;;;;;;;;;6.00;1.00;;;;;;5051933;28;19967;-79
2021/12/23 13:56:44;;;;;;;;;;;6.10;1.00;;;;;;5051711;28;19920;-79
2021/12/23 13:59:15;;;;;;;;;;;6.10;1.00;;;;;;5046613;28;19917;-80
2021/12/23 14:01:50;;;;;;;;;;;6.20;1.00;;;;;;5029621;28;19913;-80
2021/12/23 14:04:27;;;;;;;;;;;6.20;1.00;;;;;;5053176;28;19959;-81
2021/12/23 14:06:53;;;;;;;;;;;6.30;1.00;;;;;;5037945;28;19952;-80
2021/12/23 14:09:28;;;;;;;;;;;6.30;1.00;;;;;;5042736;28;19913;-80
2021/12/23 14:11:53;;;;;;;;;;;6.30;1.00;;;;;;5032065;28;19920;-80
2021/12/23 14:14:19;;;;;;;;;;;6.20;1.00;;;;;;5041356;28;19913;-80
2021/12/23 14:16:44;;;;;;;;;;;6.20;1.00;;;;;;5053479;28;20366;-80
2021/12/23 14:19:39;;;;;;;;;;;6.20;1.00;;;;;;5055836;28;19925;-80
2021/12/23 14:24:51;;;;;;;;;;;6.10;1.00;;;;;;5057064;28;19921;-80
2021/12/23 14:27:16;;;;;;;;;;;6.10;1.00;;;;;;5024957;28;19976;-79
2021/12/23 14:29:44;;;;;;;;;;;6.20;1.00;;;;;;5045685;28;19948;-80
2021/12/23 14:32:13;;;;;;;;;;;6.20;1.00;;;;;;5051090;28;19995;-80
2021/12/23 14:34:39;;;;;;;;;;;6.20;1.00;;;;;;5039664;28;19913;-80
2021/12/23 14:37:07;;;;;;;;;;;6.10;1.00;;;;;;5053761;28;19913;-80
2021/12/23 14:39:35;;;;;;;;;;;6.20;1.00;;;;;;5031296;28;19925;-81
2021/12/23 14:42:03;;;;;;;;;;;6.20;1.00;;;;;;5049815;28;19952;-81
2021/12/23 14:44:30;;;;;;;;;;;6.20;1.00;;;;;;5032942;28;19941;-80
2021/12/23 14:47:27;;;;;;;;;;;6.20;1.00;;;;;;5032288;28;19943;-81
2021/12/23 14:52:36;;;;;;;;;;;6.40;99.90;;;;;;5048248;28;19917;-80
2021/12/23 14:55:13;;;;;;;;;;;6.50;1.00;;;;;;5049153;28;19919;-82
2021/12/23 14:57:48;;;;;;;;;;;6.60;99.90;;;;;;5035222;28;19912;-80
2021/12/23 15:00:16;;;;;;;;;;;6.70;99.90;;;;;;5034189;28;19936;-80
2021/12/23 15:02:43;;;;;;;;;;;6.90;99.90;;;;;;5052916;28;19917;-81
2021/12/23 15:05:16;;;;;;;;;;;6.90;1.00;;;;;;5047944;28;20287;-80
2021/12/23 15:07:45;;;;;;;;;;;6.90;1.00;;;;;;5039560;28;19913;-81
2021/12/23 15:10:10;;;;;;;;;;;7.00;99.90;;;;;;5033111;28;19913;-80
2021/12/23 15:12:36;;;;;;;;;;;7.00;99.90;;;;;;5054573;28;19917;-80
2021/12/23 15:15:04;;;;;;;;;;;7.10;1.00;;;;;;5036425;28;19993;-80
2021/12/23 15:17:40;;;;;;;;;;;7.00;1.00;;;;;;5033072;28;19936;-80
2021/12/23 15:20:26;;;;;;;;;;;7.10;99.90;;;;;;5038043;28;19921;-80
2021/12/23 15:22:54;;;;;;;;;;;7.10;99.90;;;;;;5034363;28;19966;-80
2021/12/23 15:25:19;;;;;;;;;;;7.10;1.00;;;;;;5031871;28;19920;-80
2021/12/23 15:27:46;;;;;;;;;;;7.10;1.00;;;;;;5034100;28;19917;-80
2021/12/23 15:30:17;;;;;;;;;;;7.10;1.00;;;;;;5051147;28;20184;-80
2021/12/23 15:32:43;;;;;;;;;;;7.10;1.00;;;;;;5055868;28;19913;-80
2021/12/23 15:35:13;;;;;;;;;;;7.00;1.00;;;;;;5047850;28;19943;-82
2021/12/23 15:37:40;;;;;;;;;;;7.00;1.00;;;;;;5042996;28;19921;-79
2021/12/23 15:40:10;;;;;;;;;;;7.00;56.90;;;;;;5031329;28;19961;-80
2021/12/23 15:42:36;;;;;;;;;;;7.00;99.90;;;;;;5053278;28;19973;-80
2021/12/23 15:45:02;;;;;;;;;;;7.00;99.90;;;;;;5050667;28;19944;-80